This is the latest recevied weather packets stored in our database for station/object G1SCQ. If no packets are shown the sender has not sent any weather packets the latest 10 day(s).
| Time | Temp. | Humidity | Pressure | Rain* | Wind** | Luminosity | Snow |
|---|---|---|---|---|---|---|---|
| 1777658405 | 22.22° C | 43% | 1016.9 hPa | 0 mm | - | 71 W/m² | - |
| 1777658047 | 22.22° C | 42% | 1017.1 hPa | 0 mm | - | 83 W/m² | - |
| 1777657506 | 22.22° C | 41% | 1017.3 hPa | 0 mm | - | 100 W/m² | - |
| 1777656966 | 22.78° C | 41% | 1017.2 hPa | 0 mm | - | 120 W/m² | - |
| 1777656426 | 22.78° C | 41% | 1017.1 hPa | 0 mm | - | 137 W/m² | - |
| 1777655885 | 23.33° C | 42% | 1016.8 hPa | 0 mm | - | 158 W/m² | - |
| 1777655346 | 23.33° C | 42% | 1017.3 hPa | 0 mm | - | 179 W/m² | - |
| 1777654805 | 23.33° C | 41% | 1017.3 hPa | 0 mm | - | 201 W/m² | - |
| 1777654445 | 23.89° C | 41% | 1017.4 hPa | 0 mm | - | 213 W/m² | - |
| 1777653906 | 23.89° C | 42% | 1017.2 hPa | 0 mm | - | 234 W/m² | - |
| 1777653365 | 23.33° C | 41% | 1017.1 hPa | 0 mm | - | 258 W/m² | - |
| 1777652826 | 23.33° C | 39% | 1017.4 hPa | 0 mm | - | 280 W/m² | - |
| 1777652285 | 22.78° C | 41% | 1017.4 hPa | 0 mm | - | 305 W/m² | - |
| 1777651745 | 23.33° C | 40% | 1017.7 hPa | 0 mm | - | 325 W/m² | - |
| 1777651205 | 23.89° C | 39% | 1017.8 hPa | 0 mm | - | 343 W/m² | - |
| 1777650845 | 23.33° C | 39% | 1017.7 hPa | 0 mm | - | 267 W/m² | - |
| 1777650306 | 23.33° C | 39% | 1017.9 hPa | 0 mm | - | 381 W/m² | - |
| 1777649765 | 22.78° C | 41% | 1017.8 hPa | 0 mm | - | 369 W/m² | - |
| 1777649226 | 23.89° C | 39% | 1018 hPa | 0 mm | - | 419 W/m² | - |
| 1777648685 | 23.33° C | 39% | 1018.2 hPa | 0 mm | - | 433 W/m² | - |
| 1777648145 | 23.33° C | 39% | 1018 hPa | 0 mm | - | 451 W/m² | - |
| 1777647605 | 23.33° C | 41% | 1018 hPa | 0 mm | - | 470 W/m² | - |
| 1777647245 | 23.89° C | 41% | 1018.1 hPa | 0 mm | - | 480 W/m² | - |
| 1777646705 | 25° C | 33% | 1018.1 hPa | 0 mm | - | 497 W/m² | - |
| 1777646165 | 25° C | 33% | 1018.3 hPa | 0 mm | - | 512 W/m² | - |
* Rain latest hour (hover to see other rain measurements)
** Current wind speed in m/s (hover to see current wind gust speed)